sensor_id;sensor_type;location;lat;lon;timestamp;P1;durP1;ratioP1;P2;durP2;ratioP2
29878;SDS011;16752;53.364;-1.488;2023-05-19T00:01:30;8.10;;;4.68;;
29878;SDS011;16752;53.364;-1.488;2023-05-19T00:04:20;7.38;;;4.60;;
29878;SDS011;16752;53.364;-1.488;2023-05-19T00:07:10;11.73;;;4.60;;
29878;SDS011;16752;53.364;-1.488;2023-05-19T00:10:03;10.07;;;5.13;;
29878;SDS011;16752;53.364;-1.488;2023-05-19T00:12:52;11.13;;;4.53;;
29878;SDS011;16752;53.364;-1.488;2023-05-19T00:15:37;8.77;;;5.10;;
29878;SDS011;16752;53.364;-1.488;2023-05-19T00:18:30;7.20;;;4.57;;
29878;SDS011;16752;53.364;-1.488;2023-05-19T00:21:16;7.97;;;4.35;;
29878;SDS011;16752;53.364;-1.488;2023-05-19T00:24:01;9.50;;;4.75;;
29878;SDS011;16752;53.364;-1.488;2023-05-19T00:26:45;7.43;;;4.47;;
29878;SDS011;16752;53.364;-1.488;2023-05-19T00:29:29;12.40;;;4.82;;
29878;SDS011;16752;53.364;-1.488;2023-05-19T00:32:13;8.07;;;4.25;;
29878;SDS011;16752;53.364;-1.488;2023-05-19T00:34:58;9.15;;;5.55;;
29878;SDS011;16752;53.364;-1.488;2023-05-19T00:37:43;6.85;;;4.88;;
29878;SDS011;16752;53.364;-1.488;2023-05-19T00:40:28;7.25;;;4.18;;
29878;SDS011;16752;53.364;-1.488;2023-05-19T00:43:15;6.10;;;4.88;;
29878;SDS011;16752;53.364;-1.488;2023-05-19T00:46:02;8.20;;;4.72;;
29878;SDS011;16752;53.364;-1.488;2023-05-19T00:48:54;9.35;;;4.32;;
29878;SDS011;16752;53.364;-1.488;2023-05-19T00:51:39;6.78;;;3.83;;
29878;SDS011;16752;53.364;-1.488;2023-05-19T00:54:24;8.00;;;4.20;;
29878;SDS011;16752;53.364;-1.488;2023-05-19T00:57:09;8.73;;;4.97;;
29878;SDS011;16752;53.364;-1.488;2023-05-19T01:00:02;10.80;;;4.93;;
29878;SDS011;16752;53.364;-1.488;2023-05-19T01:02:54;6.40;;;4.25;;
29878;SDS011;16752;53.364;-1.488;2023-05-19T01:05:41;8.23;;;4.00;;
29878;SDS011;16752;53.364;-1.488;2023-05-19T01:08:30;10.40;;;4.07;;
29878;SDS011;16752;53.364;-1.488;2023-05-19T01:11:19;6.47;;;4.40;;
29878;SDS011;16752;53.364;-1.488;2023-05-19T01:14:04;8.63;;;5.13;;
29878;SDS011;16752;53.364;-1.488;2023-05-19T01:16:49;7.38;;;4.72;;
29878;SDS011;16752;53.364;-1.488;2023-05-19T01:32:05;10.57;;;5.60;;
29878;SDS011;16752;53.364;-1.488;2023-05-19T01:34:52;9.88;;;4.82;;
29878;SDS011;16752;53.364;-1.488;2023-05-19T01:37:40;7.68;;;4.80;;
29878;SDS011;16752;53.364;-1.488;2023-05-19T01:43:47;10.68;;;6.15;;
29878;SDS011;16752;53.364;-1.488;2023-05-19T01:46:33;11.70;;;6.40;;
29878;SDS011;16752;53.364;-1.488;2023-05-19T01:52:07;10.18;;;6.38;;
29878;SDS011;16752;53.364;-1.488;2023-05-19T01:54:58;14.07;;;6.65;;
29878;SDS011;16752;53.364;-1.488;2023-05-19T02:06:48;8.85;;;5.78;;
29878;SDS011;16752;53.364;-1.488;2023-05-19T02:12:33;8.50;;;5.25;;
29878;SDS011;16752;53.364;-1.488;2023-05-19T02:15:21;11.82;;;5.35;;
29878;SDS011;16752;53.364;-1.488;2023-05-19T02:18:11;6.28;;;4.65;;
29878;SDS011;16752;53.364;-1.488;2023-05-19T02:21:05;5.85;;;4.07;;
29878;SDS011;16752;53.364;-1.488;2023-05-19T02:23:55;5.45;;;4.03;;
29878;SDS011;16752;53.364;-1.488;2023-05-19T02:26:39;7.97;;;4.20;;
29878;SDS011;16752;53.364;-1.488;2023-05-19T02:29:32;13.90;;;4.80;;
29878;SDS011;16752;53.364;-1.488;2023-05-19T02:32:22;9.35;;;4.63;;
29878;SDS011;16752;53.364;-1.488;2023-05-19T02:35:06;7.57;;;4.57;;
29878;SDS011;16752;53.364;-1.488;2023-05-19T02:37:55;9.38;;;4.85;;
29878;SDS011;16752;53.364;-1.488;2023-05-19T02:40:40;4.57;;;3.80;;
29878;SDS011;16752;53.364;-1.488;2023-05-19T02:43:24;6.80;;;3.90;;
29878;SDS011;16752;53.364;-1.488;2023-05-19T02:46:12;8.25;;;4.63;;
29878;SDS011;16752;53.364;-1.488;2023-05-19T02:49:01;7.30;;;4.20;;
29878;SDS011;16752;53.364;-1.488;2023-05-19T02:52:01;7.30;;;4.43;;
29878;SDS011;16752;53.364;-1.488;2023-05-19T02:54:50;9.85;;;4.78;;
29878;SDS011;16752;53.364;-1.488;2023-05-19T02:57:37;7.53;;;4.35;;
29878;SDS011;16752;53.364;-1.488;2023-05-19T03:00:29;8.38;;;4.50;;
29878;SDS011;16752;53.364;-1.488;2023-05-19T03:03:22;9.73;;;4.60;;
29878;SDS011;16752;53.364;-1.488;2023-05-19T03:06:31;5.47;;;4.30;;
29878;SDS011;16752;53.364;-1.488;2023-05-19T03:09:19;9.13;;;4.57;;
29878;SDS011;16752;53.364;-1.488;2023-05-19T03:12:05;7.78;;;3.75;;
29878;SDS011;16752;53.364;-1.488;2023-05-19T03:14:50;6.82;;;4.25;;
29878;SDS011;16752;53.364;-1.488;2023-05-19T03:17:34;6.70;;;4.55;;
29878;SDS011;16752;53.364;-1.488;2023-05-19T03:20:19;5.97;;;4.38;;
29878;SDS011;16752;53.364;-1.488;2023-05-19T03:23:03;5.45;;;3.92;;
29878;SDS011;16752;53.364;-1.488;2023-05-19T03:25:54;9.07;;;4.45;;
29878;SDS011;16752;53.364;-1.488;2023-05-19T03:28:55;11.02;;;4.40;;
29878;SDS011;16752;53.364;-1.488;2023-05-19T03:31:42;10.02;;;4.78;;
29878;SDS011;16752;53.364;-1.488;2023-05-19T03:34:36;8.52;;;4.80;;
29878;SDS011;16752;53.364;-1.488;2023-05-19T03:37:24;8.75;;;4.35;;
29878;SDS011;16752;53.364;-1.488;2023-05-19T03:40:19;7.55;;;4.80;;
29878;SDS011;16752;53.364;-1.488;2023-05-19T03:43:08;7.22;;;3.88;;
29878;SDS011;16752;53.364;-1.488;2023-05-19T03:46:03;7.10;;;4.22;;
29878;SDS011;16752;53.364;-1.488;2023-05-19T03:49:24;14.63;;;4.88;;
29878;SDS011;16752;53.364;-1.488;2023-05-19T03:53:03;9.48;;;4.72;;
29878;SDS011;16752;53.364;-1.488;2023-05-19T04:00:11;9.73;;;4.75;;
29878;SDS011;16752;53.364;-1.488;2023-05-19T04:02:57;7.28;;;4.40;;
29878;SDS011;16752;53.364;-1.488;2023-05-19T04:06:07;8.57;;;5.03;;
29878;SDS011;16752;53.364;-1.488;2023-05-19T04:12:09;7.72;;;4.70;;
29878;SDS011;16752;53.364;-1.488;2023-05-19T05:00:16;9.02;;;4.57;;
29878;SDS011;16752;53.364;-1.488;2023-05-19T05:03:37;10.55;;;4.28;;
29878;SDS011;16752;53.364;-1.488;2023-05-19T05:37:36;3.75;;;3.30;;
29878;SDS011;16752;53.364;-1.488;2023-05-19T05:49:06;5.90;;;3.80;;
29878;SDS011;16752;53.364;-1.488;2023-05-19T05:51:59;4.90;;;4.03;;
29878;SDS011;16752;53.364;-1.488;2023-05-19T05:55:03;5.28;;;3.28;;
29878;SDS011;16752;53.364;-1.488;2023-05-19T05:58:04;5.30;;;4.00;;
29878;SDS011;16752;53.364;-1.488;2023-05-19T06:00:56;5.28;;;3.13;;
29878;SDS011;16752;53.364;-1.488;2023-05-19T06:03:48;8.10;;;3.40;;
29878;SDS011;16752;53.364;-1.488;2023-05-19T06:06:39;8.27;;;3.55;;
29878;SDS011;16752;53.364;-1.488;2023-05-19T06:09:47;7.72;;;3.92;;
29878;SDS011;16752;53.364;-1.488;2023-05-19T06:12:43;5.70;;;4.00;;
29878;SDS011;16752;53.364;-1.488;2023-05-19T06:15:47;4.63;;;2.65;;
29878;SDS011;16752;53.364;-1.488;2023-05-19T06:18:32;4.97;;;3.10;;
29878;SDS011;16752;53.364;-1.488;2023-05-19T06:21:29;6.85;;;3.10;;
29878;SDS011;16752;53.364;-1.488;2023-05-19T06:24:27;8.70;;;3.47;;
29878;SDS011;16752;53.364;-1.488;2023-05-19T06:31:03;4.50;;;2.25;;
29878;SDS011;16752;53.364;-1.488;2023-05-19T06:34:38;6.43;;;2.95;;
29878;SDS011;16752;53.364;-1.488;2023-05-19T06:47:01;2.40;;;2.20;;
29878;SDS011;16752;53.364;-1.488;2023-05-19T06:49:46;5.20;;;2.70;;
29878;SDS011;16752;53.364;-1.488;2023-05-19T06:52:37;6.28;;;3.15;;
29878;SDS011;16752;53.364;-1.488;2023-05-19T06:55:21;6.65;;;2.67;;
29878;SDS011;16752;53.364;-1.488;2023-05-19T06:58:05;3.90;;;2.45;;
29878;SDS011;16752;53.364;-1.488;2023-05-19T07:00:49;8.35;;;3.13;;
29878;SDS011;16752;53.364;-1.488;2023-05-19T07:03:33;10.07;;;3.10;;
29878;SDS011;16752;53.364;-1.488;2023-05-19T07:06:18;4.72;;;2.20;;
29878;SDS011;16752;53.364;-1.488;2023-05-19T07:09:02;6.18;;;2.50;;
29878;SDS011;16752;53.364;-1.488;2023-05-19T07:11:47;4.75;;;2.35;;
29878;SDS011;16752;53.364;-1.488;2023-05-19T07:14:49;8.68;;;2.65;;
29878;SDS011;16752;53.364;-1.488;2023-05-19T07:17:36;8.73;;;2.45;;
29878;SDS011;16752;53.364;-1.488;2023-05-19T07:20:28;6.38;;;2.38;;
29878;SDS011;16752;53.364;-1.488;2023-05-19T07:23:20;5.13;;;2.83;;
29878;SDS011;16752;53.364;-1.488;2023-05-19T07:26:11;6.63;;;2.55;;
29878;SDS011;16752;53.364;-1.488;2023-05-19T07:28:55;6.18;;;2.65;;
29878;SDS011;16752;53.364;-1.488;2023-05-19T07:31:45;6.00;;;2.88;;
29878;SDS011;16752;53.364;-1.488;2023-05-19T07:34:29;4.45;;;2.53;;
29878;SDS011;16752;53.364;-1.488;2023-05-19T07:37:13;3.28;;;2.38;;
29878;SDS011;16752;53.364;-1.488;2023-05-19T07:39:58;7.38;;;2.90;;
29878;SDS011;16752;53.364;-1.488;2023-05-19T07:42:50;4.35;;;2.33;;
29878;SDS011;16752;53.364;-1.488;2023-05-19T07:45:43;11.73;;;2.50;;
29878;SDS011;16752;53.364;-1.488;2023-05-19T07:48:27;11.50;;;3.10;;
29878;SDS011;16752;53.364;-1.488;2023-05-19T07:51:30;4.95;;;2.65;;
29878;SDS011;16752;53.364;-1.488;2023-05-19T07:54:15;5.82;;;2.50;;
29878;SDS011;16752;53.364;-1.488;2023-05-19T07:57:06;4.00;;;2.42;;
29878;SDS011;16752;53.364;-1.488;2023-05-19T07:59:50;6.15;;;2.70;;
29878;SDS011;16752;53.364;-1.488;2023-05-19T08:14:17;8.02;;;2.88;;
29878;SDS011;16752;53.364;-1.488;2023-05-19T08:21:20;4.50;;;2.67;;
29878;SDS011;16752;53.364;-1.488;2023-05-19T08:29:50;5.18;;;2.90;;
29878;SDS011;16752;53.364;-1.488;2023-05-19T08:35:38;7.72;;;3.50;;
29878;SDS011;16752;53.364;-1.488;2023-05-19T09:02:40;6.50;;;3.60;;
29878;SDS011;16752;53.364;-1.488;2023-05-19T09:08:34;6.03;;;3.80;;
29878;SDS011;16752;53.364;-1.488;2023-05-19T09:11:25;7.13;;;4.72;;
29878;SDS011;16752;53.364;-1.488;2023-05-19T09:14:14;6.38;;;4.18;;
29878;SDS011;16752;53.364;-1.488;2023-05-19T09:21:25;7.22;;;4.63;;
29878;SDS011;16752;53.364;-1.488;2023-05-19T09:46:56;11.30;;;4.28;;
29878;SDS011;16752;53.364;-1.488;2023-05-19T09:54:04;8.02;;;3.72;;
29878;SDS011;16752;53.364;-1.488;2023-05-19T10:00:10;6.03;;;4.82;;
29878;SDS011;16752;53.364;-1.488;2023-05-19T10:06:58;13.30;;;6.05;;
29878;SDS011;16752;53.364;-1.488;2023-05-19T10:09:50;8.77;;;5.25;;
29878;SDS011;16752;53.364;-1.488;2023-05-19T10:19:22;7.55;;;5.32;;
29878;SDS011;16752;53.364;-1.488;2023-05-19T10:22:17;7.18;;;5.30;;
29878;SDS011;16752;53.364;-1.488;2023-05-19T10:25:45;8.65;;;4.22;;
29878;SDS011;16752;53.364;-1.488;2023-05-19T10:28:48;6.68;;;4.25;;
29878;SDS011;16752;53.364;-1.488;2023-05-19T10:38:38;5.03;;;3.85;;
29878;SDS011;16752;53.364;-1.488;2023-05-19T10:45:00;8.90;;;4.70;;
29878;SDS011;16752;53.364;-1.488;2023-05-19T10:47:51;10.88;;;4.25;;
29878;SDS011;16752;53.364;-1.488;2023-05-19T10:50:37;8.40;;;5.28;;
29878;SDS011;16752;53.364;-1.488;2023-05-19T10:53:26;9.07;;;4.88;;
29878;SDS011;16752;53.364;-1.488;2023-05-19T10:56:27;6.93;;;4.78;;
29878;SDS011;16752;53.364;-1.488;2023-05-19T10:59:35;5.30;;;4.28;;
29878;SDS011;16752;53.364;-1.488;2023-05-19T11:05:51;10.32;;;4.88;;
29878;SDS011;16752;53.364;-1.488;2023-05-19T11:08:38;7.72;;;4.88;;
29878;SDS011;16752;53.364;-1.488;2023-05-19T11:11:26;8.73;;;4.50;;
29878;SDS011;16752;53.364;-1.488;2023-05-19T11:14:28;6.82;;;4.32;;
29878;SDS011;16752;53.364;-1.488;2023-05-19T11:17:18;8.57;;;4.80;;
29878;SDS011;16752;53.364;-1.488;2023-05-19T11:20:55;10.73;;;4.55;;
29878;SDS011;16752;53.364;-1.488;2023-05-19T11:26:39;7.38;;;4.40;;
29878;SDS011;16752;53.364;-1.488;2023-05-19T11:34:04;8.52;;;4.25;;
29878;SDS011;16752;53.364;-1.488;2023-05-19T11:36:53;7.53;;;4.68;;
29878;SDS011;16752;53.364;-1.488;2023-05-19T11:39:40;7.20;;;4.00;;
29878;SDS011;16752;53.364;-1.488;2023-05-19T11:45:03;4.85;;;3.92;;
29878;SDS011;16752;53.364;-1.488;2023-05-19T11:47:50;8.20;;;4.45;;
29878;SDS011;16752;53.364;-1.488;2023-05-19T11:50:58;11.35;;;4.97;;
29878;SDS011;16752;53.364;-1.488;2023-05-19T11:57:10;10.65;;;4.85;;
29878;SDS011;16752;53.364;-1.488;2023-05-19T12:09:43;6.78;;;4.35;;
29878;SDS011;16752;53.364;-1.488;2023-05-19T12:12:31;10.57;;;4.90;;
29878;SDS011;16752;53.364;-1.488;2023-05-19T12:15:19;13.38;;;5.18;;
29878;SDS011;16752;53.364;-1.488;2023-05-19T12:18:06;9.45;;;5.00;;
29878;SDS011;16752;53.364;-1.488;2023-05-19T12:21:03;15.30;;;5.38;;
29878;SDS011;16752;53.364;-1.488;2023-05-19T12:42:09;10.13;;;5.40;;
29878;SDS011;16752;53.364;-1.488;2023-05-19T13:03:30;8.10;;;5.28;;
29878;SDS011;16752;53.364;-1.488;2023-05-19T13:06:26;12.68;;;5.20;;
29878;SDS011;16752;53.364;-1.488;2023-05-19T13:16:46;10.80;;;5.75;;
29878;SDS011;16752;53.364;-1.488;2023-05-19T13:22:53;7.95;;;5.68;;
29878;SDS011;16752;53.364;-1.488;2023-05-19T13:28:50;8.82;;;5.85;;
29878;SDS011;16752;53.364;-1.488;2023-05-19T13:31:37;11.15;;;6.57;;
29878;SDS011;16752;53.364;-1.488;2023-05-19T13:34:24;17.60;;;5.72;;
29878;SDS011;16752;53.364;-1.488;2023-05-19T13:37:25;6.88;;;5.13;;
29878;SDS011;16752;53.364;-1.488;2023-05-19T13:40:12;9.55;;;5.72;;
29878;SDS011;16752;53.364;-1.488;2023-05-19T13:43:06;8.85;;;6.40;;
29878;SDS011;16752;53.364;-1.488;2023-05-19T13:45:52;7.75;;;5.15;;
29878;SDS011;16752;53.364;-1.488;2023-05-19T13:52:01;7.47;;;5.45;;
29878;SDS011;16752;53.364;-1.488;2023-05-19T13:55:25;8.38;;;4.70;;
29878;SDS011;16752;53.364;-1.488;2023-05-19T13:58:12;6.43;;;4.03;;
29878;SDS011;16752;53.364;-1.488;2023-05-19T14:01:00;5.70;;;3.83;;
29878;SDS011;16752;53.364;-1.488;2023-05-19T14:03:47;5.80;;;3.28;;
29878;SDS011;16752;53.364;-1.488;2023-05-19T14:06:32;4.35;;;3.20;;
29878;SDS011;16752;53.364;-1.488;2023-05-19T14:09:56;5.82;;;3.63;;
29878;SDS011;16752;53.364;-1.488;2023-05-19T14:16:07;4.90;;;4.00;;
29878;SDS011;16752;53.364;-1.488;2023-05-19T14:19:06;12.25;;;5.40;;
29878;SDS011;16752;53.364;-1.488;2023-05-19T14:28:31;6.68;;;4.43;;
29878;SDS011;16752;53.364;-1.488;2023-05-19T14:34:28;7.57;;;4.10;;
29878;SDS011;16752;53.364;-1.488;2023-05-19T14:37:13;13.50;;;4.35;;
29878;SDS011;16752;53.364;-1.488;2023-05-19T14:40:03;5.68;;;3.78;;
29878;SDS011;16752;53.364;-1.488;2023-05-19T14:42:59;6.32;;;4.20;;
29878;SDS011;16752;53.364;-1.488;2023-05-19T14:45:50;4.68;;;3.28;;
29878;SDS011;16752;53.364;-1.488;2023-05-19T14:48:42;5.18;;;2.88;;
29878;SDS011;16752;53.364;-1.488;2023-05-19T14:55:31;6.07;;;2.60;;
29878;SDS011;16752;53.364;-1.488;2023-05-19T14:58:18;3.03;;;2.72;;
29878;SDS011;16752;53.364;-1.488;2023-05-19T15:04:02;5.50;;;2.78;;
29878;SDS011;16752;53.364;-1.488;2023-05-19T15:06:47;3.30;;;2.38;;
29878;SDS011;16752;53.364;-1.488;2023-05-19T15:09:31;3.05;;;2.03;;
29878;SDS011;16752;53.364;-1.488;2023-05-19T15:12:25;3.33;;;2.28;;
29878;SDS011;16752;53.364;-1.488;2023-05-19T15:15:09;4.60;;;2.47;;
29878;SDS011;16752;53.364;-1.488;2023-05-19T15:17:54;5.32;;;2.20;;
29878;SDS011;16752;53.364;-1.488;2023-05-19T15:21:02;6.10;;;2.15;;
29878;SDS011;16752;53.364;-1.488;2023-05-19T15:27:08;2.13;;;1.67;;
29878;SDS011;16752;53.364;-1.488;2023-05-19T15:30:18;3.92;;;1.92;;
29878;SDS011;16752;53.364;-1.488;2023-05-19T15:33:10;4.28;;;1.85;;
29878;SDS011;16752;53.364;-1.488;2023-05-19T15:35:55;3.67;;;1.98;;
29878;SDS011;16752;53.364;-1.488;2023-05-19T15:38:40;2.20;;;1.92;;
29878;SDS011;16752;53.364;-1.488;2023-05-19T15:41:27;8.30;;;2.15;;
29878;SDS011;16752;53.364;-1.488;2023-05-19T15:47:22;3.20;;;1.70;;
29878;SDS011;16752;53.364;-1.488;2023-05-19T15:58:06;2.80;;;1.70;;
29878;SDS011;16752;53.364;-1.488;2023-05-19T16:12:43;2.00;;;1.58;;
29878;SDS011;16752;53.364;-1.488;2023-05-19T16:16:09;4.65;;;2.28;;
29878;SDS011;16752;53.364;-1.488;2023-05-19T16:19:00;4.57;;;2.33;;
29878;SDS011;16752;53.364;-1.488;2023-05-19T16:25:27;4.70;;;1.88;;
29878;SDS011;16752;53.364;-1.488;2023-05-19T16:28:14;3.08;;;2.13;;
29878;SDS011;16752;53.364;-1.488;2023-05-19T16:31:07;4.35;;;2.75;;
29878;SDS011;16752;53.364;-1.488;2023-05-19T16:34:01;4.63;;;2.83;;
29878;SDS011;16752;53.364;-1.488;2023-05-19T16:36:57;5.28;;;2.85;;
29878;SDS011;16752;53.364;-1.488;2023-05-19T16:40:07;6.45;;;3.33;;
29878;SDS011;16752;53.364;-1.488;2023-05-19T16:43:02;3.80;;;3.20;;
29878;SDS011;16752;53.364;-1.488;2023-05-19T16:45:53;9.43;;;3.97;;
29878;SDS011;16752;53.364;-1.488;2023-05-19T16:48:43;6.40;;;4.53;;
29878;SDS011;16752;53.364;-1.488;2023-05-19T16:51:29;12.43;;;5.20;;
29878;SDS011;16752;53.364;-1.488;2023-05-19T16:54:13;12.02;;;6.13;;
29878;SDS011;16752;53.364;-1.488;2023-05-19T16:56:57;12.30;;;6.78;;
29878;SDS011;16752;53.364;-1.488;2023-05-19T16:59:41;8.23;;;5.70;;
29878;SDS011;16752;53.364;-1.488;2023-05-19T17:02:25;8.43;;;6.47;;
29878;SDS011;16752;53.364;-1.488;2023-05-19T17:08:03;11.15;;;6.88;;
29878;SDS011;16752;53.364;-1.488;2023-05-19T17:10:48;9.93;;;7.10;;
29878;SDS011;16752;53.364;-1.488;2023-05-19T17:13:32;15.02;;;7.30;;
29878;SDS011;16752;53.364;-1.488;2023-05-19T17:16:18;17.00;;;9.68;;
29878;SDS011;16752;53.364;-1.488;2023-05-19T17:19:12;10.20;;;7.32;;
29878;SDS011;16752;53.364;-1.488;2023-05-19T17:21:56;13.18;;;8.40;;
29878;SDS011;16752;53.364;-1.488;2023-05-19T17:24:40;15.32;;;7.00;;
29878;SDS011;16752;53.364;-1.488;2023-05-19T17:27:24;9.50;;;6.25;;
29878;SDS011;16752;53.364;-1.488;2023-05-19T17:30:08;10.57;;;6.72;;
29878;SDS011;16752;53.364;-1.488;2023-05-19T17:32:53;11.75;;;7.38;;
29878;SDS011;16752;53.364;-1.488;2023-05-19T17:35:37;12.30;;;6.85;;
29878;SDS011;16752;53.364;-1.488;2023-05-19T17:38:21;12.00;;;7.72;;
29878;SDS011;16752;53.364;-1.488;2023-05-19T17:41:05;9.68;;;7.07;;
29878;SDS011;16752;53.364;-1.488;2023-05-19T17:43:53;11.90;;;8.05;;
29878;SDS011;16752;53.364;-1.488;2023-05-19T17:46:37;11.23;;;7.43;;
29878;SDS011;16752;53.364;-1.488;2023-05-19T17:49:22;10.57;;;7.22;;
29878;SDS011;16752;53.364;-1.488;2023-05-19T17:52:08;13.90;;;7.57;;
29878;SDS011;16752;53.364;-1.488;2023-05-19T17:54:56;9.55;;;6.72;;
29878;SDS011;16752;53.364;-1.488;2023-05-19T17:57:41;13.23;;;7.65;;
29878;SDS011;16752;53.364;-1.488;2023-05-19T18:00:27;9.07;;;6.78;;
29878;SDS011;16752;53.364;-1.488;2023-05-19T18:03:12;11.40;;;7.70;;
29878;SDS011;16752;53.364;-1.488;2023-05-19T18:06:04;14.35;;;7.78;;
29878;SDS011;16752;53.364;-1.488;2023-05-19T18:08:49;13.35;;;7.55;;
29878;SDS011;16752;53.364;-1.488;2023-05-19T18:11:38;12.32;;;7.55;;
29878;SDS011;16752;53.364;-1.488;2023-05-19T18:14:23;14.00;;;7.90;;
29878;SDS011;16752;53.364;-1.488;2023-05-19T18:17:07;19.80;;;8.38;;
29878;SDS011;16752;53.364;-1.488;2023-05-19T18:19:51;11.88;;;8.57;;
29878;SDS011;16752;53.364;-1.488;2023-05-19T18:22:37;15.25;;;9.00;;
29878;SDS011;16752;53.364;-1.488;2023-05-19T18:25:22;10.02;;;7.15;;
29878;SDS011;16752;53.364;-1.488;2023-05-19T18:28:06;13.93;;;7.57;;
29878;SDS011;16752;53.364;-1.488;2023-05-19T18:31:00;14.80;;;8.73;;
29878;SDS011;16752;53.364;-1.488;2023-05-19T18:33:45;12.07;;;7.60;;
29878;SDS011;16752;53.364;-1.488;2023-05-19T18:36:29;14.10;;;8.70;;
29878;SDS011;16752;53.364;-1.488;2023-05-19T18:39:17;11.95;;;7.88;;
29878;SDS011;16752;53.364;-1.488;2023-05-19T18:42:11;13.25;;;8.73;;
29878;SDS011;16752;53.364;-1.488;2023-05-19T18:44:55;14.57;;;8.40;;
29878;SDS011;16752;53.364;-1.488;2023-05-19T18:47:39;12.30;;;7.35;;
29878;SDS011;16752;53.364;-1.488;2023-05-19T18:50:24;14.05;;;9.35;;
29878;SDS011;16752;53.364;-1.488;2023-05-19T18:53:08;15.30;;;9.27;;
29878;SDS011;16752;53.364;-1.488;2023-05-19T18:56:00;13.75;;;9.35;;
29878;SDS011;16752;53.364;-1.488;2023-05-19T18:58:46;12.48;;;8.35;;
29878;SDS011;16752;53.364;-1.488;2023-05-19T19:01:30;14.10;;;8.07;;
29878;SDS011;16752;53.364;-1.488;2023-05-19T19:04:14;16.33;;;9.88;;
29878;SDS011;16752;53.364;-1.488;2023-05-19T19:06:59;11.13;;;7.88;;
29878;SDS011;16752;53.364;-1.488;2023-05-19T19:09:45;14.45;;;8.20;;
29878;SDS011;16752;53.364;-1.488;2023-05-19T19:12:29;12.55;;;8.52;;
29878;SDS011;16752;53.364;-1.488;2023-05-19T19:15:14;11.75;;;7.85;;
29878;SDS011;16752;53.364;-1.488;2023-05-19T19:18:01;12.07;;;8.48;;
29878;SDS011;16752;53.364;-1.488;2023-05-19T19:20:46;13.68;;;8.30;;
29878;SDS011;16752;53.364;-1.488;2023-05-19T19:23:30;12.90;;;8.45;;
29878;SDS011;16752;53.364;-1.488;2023-05-19T19:26:17;15.23;;;8.30;;
29878;SDS011;16752;53.364;-1.488;2023-05-19T19:29:01;12.38;;;8.13;;
29878;SDS011;16752;53.364;-1.488;2023-05-19T19:31:45;11.80;;;7.88;;
29878;SDS011;16752;53.364;-1.488;2023-05-19T19:34:29;11.48;;;8.43;;
29878;SDS011;16752;53.364;-1.488;2023-05-19T19:37:14;13.68;;;8.43;;
29878;SDS011;16752;53.364;-1.488;2023-05-19T19:39:59;14.10;;;8.82;;
29878;SDS011;16752;53.364;-1.488;2023-05-19T19:42:43;11.65;;;8.55;;
29878;SDS011;16752;53.364;-1.488;2023-05-19T19:45:28;17.25;;;9.27;;
29878;SDS011;16752;53.364;-1.488;2023-05-19T19:48:13;14.10;;;9.25;;
29878;SDS011;16752;53.364;-1.488;2023-05-19T19:51:00;18.20;;;9.60;;
29878;SDS011;16752;53.364;-1.488;2023-05-19T19:53:47;15.88;;;9.68;;
29878;SDS011;16752;53.364;-1.488;2023-05-19T19:56:31;11.63;;;8.07;;
29878;SDS011;16752;53.364;-1.488;2023-05-19T19:59:15;13.85;;;8.50;;
29878;SDS011;16752;53.364;-1.488;2023-05-19T20:02:00;10.55;;;8.10;;
29878;SDS011;16752;53.364;-1.488;2023-05-19T20:04:45;14.20;;;8.38;;
29878;SDS011;16752;53.364;-1.488;2023-05-19T20:07:29;11.30;;;7.53;;
29878;SDS011;16752;53.364;-1.488;2023-05-19T20:10:15;13.02;;;8.52;;
29878;SDS011;16752;53.364;-1.488;2023-05-19T20:12:59;12.50;;;8.43;;
29878;SDS011;16752;53.364;-1.488;2023-05-19T20:15:44;13.93;;;8.43;;
29878;SDS011;16752;53.364;-1.488;2023-05-19T20:18:29;16.67;;;9.65;;
29878;SDS011;16752;53.364;-1.488;2023-05-19T20:21:13;14.27;;;8.48;;
29878;SDS011;16752;53.364;-1.488;2023-05-19T20:23:57;11.43;;;8.15;;
29878;SDS011;16752;53.364;-1.488;2023-05-19T20:26:45;12.93;;;8.50;;
29878;SDS011;16752;53.364;-1.488;2023-05-19T20:29:29;10.93;;;8.00;;
29878;SDS011;16752;53.364;-1.488;2023-05-19T20:32:14;14.05;;;9.27;;
29878;SDS011;16752;53.364;-1.488;2023-05-19T20:34:58;14.32;;;9.07;;
29878;SDS011;16752;53.364;-1.488;2023-05-19T20:37:42;12.18;;;8.90;;
29878;SDS011;16752;53.364;-1.488;2023-05-19T20:40:26;13.73;;;8.82;;
29878;SDS011;16752;53.364;-1.488;2023-05-19T20:43:23;13.88;;;9.32;;
29878;SDS011;16752;53.364;-1.488;2023-05-19T20:46:10;12.95;;;8.88;;
29878;SDS011;16752;53.364;-1.488;2023-05-19T20:48:54;14.75;;;9.68;;
29878;SDS011;16752;53.364;-1.488;2023-05-19T20:51:38;17.45;;;10.23;;
29878;SDS011;16752;53.364;-1.488;2023-05-19T20:54:42;18.17;;;9.90;;
29878;SDS011;16752;53.364;-1.488;2023-05-19T20:57:30;12.95;;;8.95;;
29878;SDS011;16752;53.364;-1.488;2023-05-19T21:00:15;12.32;;;8.63;;
29878;SDS011;16752;53.364;-1.488;2023-05-19T21:03:04;15.48;;;9.90;;
29878;SDS011;16752;53.364;-1.488;2023-05-19T21:05:56;20.27;;;8.75;;
29878;SDS011;16752;53.364;-1.488;2023-05-19T21:08:40;15.65;;;9.75;;
29878;SDS011;16752;53.364;-1.488;2023-05-19T21:11:24;15.70;;;9.63;;
29878;SDS011;16752;53.364;-1.488;2023-05-19T21:14:08;11.82;;;8.63;;
29878;SDS011;16752;53.364;-1.488;2023-05-19T21:16:54;14.43;;;8.77;;
29878;SDS011;16752;53.364;-1.488;2023-05-19T21:19:42;15.70;;;8.52;;
29878;SDS011;16752;53.364;-1.488;2023-05-19T21:22:26;11.55;;;7.70;;
29878;SDS011;16752;53.364;-1.488;2023-05-19T21:25:11;13.80;;;9.25;;
29878;SDS011;16752;53.364;-1.488;2023-05-19T21:27:55;11.43;;;7.72;;
29878;SDS011;16752;53.364;-1.488;2023-05-19T21:30:40;15.93;;;8.80;;
29878;SDS011;16752;53.364;-1.488;2023-05-19T21:33:25;16.92;;;8.40;;
29878;SDS011;16752;53.364;-1.488;2023-05-19T21:36:18;11.60;;;7.93;;
29878;SDS011;16752;53.364;-1.488;2023-05-19T21:39:02;11.00;;;7.97;;
29878;SDS011;16752;53.364;-1.488;2023-05-19T21:41:47;11.77;;;8.00;;
29878;SDS011;16752;53.364;-1.488;2023-05-19T21:44:31;16.33;;;8.25;;
29878;SDS011;16752;53.364;-1.488;2023-05-19T21:47:15;15.38;;;8.35;;
29878;SDS011;16752;53.364;-1.488;2023-05-19T21:49:59;12.73;;;8.00;;
29878;SDS011;16752;53.364;-1.488;2023-05-19T21:52:43;10.60;;;8.05;;
29878;SDS011;16752;53.364;-1.488;2023-05-19T21:55:34;15.35;;;8.65;;
29878;SDS011;16752;53.364;-1.488;2023-05-19T21:58:18;12.20;;;7.97;;
29878;SDS011;16752;53.364;-1.488;2023-05-19T22:01:06;14.23;;;9.40;;
29878;SDS011;16752;53.364;-1.488;2023-05-19T22:03:51;12.95;;;8.43;;
29878;SDS011;16752;53.364;-1.488;2023-05-19T22:06:35;16.73;;;9.38;;
29878;SDS011;16752;53.364;-1.488;2023-05-19T22:09:22;15.85;;;9.70;;
29878;SDS011;16752;53.364;-1.488;2023-05-19T22:12:20;19.25;;;9.50;;
29878;SDS011;16752;53.364;-1.488;2023-05-19T22:15:32;16.45;;;10.13;;
29878;SDS011;16752;53.364;-1.488;2023-05-19T22:18:20;16.00;;;9.95;;
29878;SDS011;16752;53.364;-1.488;2023-05-19T22:21:07;16.25;;;10.10;;
29878;SDS011;16752;53.364;-1.488;2023-05-19T22:23:51;18.10;;;10.65;;
29878;SDS011;16752;53.364;-1.488;2023-05-19T22:26:35;20.08;;;12.60;;
29878;SDS011;16752;53.364;-1.488;2023-05-19T22:29:19;16.50;;;11.52;;
29878;SDS011;16752;53.364;-1.488;2023-05-19T22:32:04;18.67;;;11.73;;
29878;SDS011;16752;53.364;-1.488;2023-05-19T22:34:50;21.08;;;12.48;;
29878;SDS011;16752;53.364;-1.488;2023-05-19T22:37:37;17.25;;;10.98;;
29878;SDS011;16752;53.364;-1.488;2023-05-19T22:40:21;16.13;;;12.00;;
29878;SDS011;16752;53.364;-1.488;2023-05-19T22:43:05;15.95;;;11.68;;
29878;SDS011;16752;53.364;-1.488;2023-05-19T22:45:52;18.25;;;11.35;;
29878;SDS011;16752;53.364;-1.488;2023-05-19T22:48:42;18.90;;;11.77;;
29878;SDS011;16752;53.364;-1.488;2023-05-19T22:51:29;23.08;;;13.77;;
29878;SDS011;16752;53.364;-1.488;2023-05-19T22:54:16;23.05;;;14.02;;
29878;SDS011;16752;53.364;-1.488;2023-05-19T22:57:06;23.00;;;13.93;;